Time;durP1;ratioP1;P1;durP2;ratioP2;P2;SDS_P1;SDS_P2;PMS_P1;PMS_P2;Temp;Humidity;BMP_temperature;BMP_pressure;BME280_temperature;BME280_humidity;BME280_pressure;Samples;Min_cycle;Max_cycle;Signal;HPM_P1;HPM_P2
2022/02/08 00:02:01;;;;;;;;;;;22.40;44.60;;;;;;5141081;27;19976;-46
2022/02/08 00:04:29;;;;;;;;;;;22.40;44.70;;;;;;5141763;27;20290;-44
2022/02/08 00:06:57;;;;;;;;;;;22.40;44.70;;;;;;5162104;27;19931;-47
2022/02/08 00:09:26;;;;;;;;;;;22.40;44.70;;;;;;5161723;27;19969;-44
2022/02/08 00:11:53;;;;;;;;;;;22.40;44.70;;;;;;5160649;27;19923;-44
2022/02/08 00:14:20;;;;;;;;;;;22.40;44.70;;;;;;5161641;27;20026;-44
2022/02/08 00:16:47;;;;;;;;;;;22.40;45.30;;;;;;5161815;27;20433;-44
2022/02/08 00:19:14;;;;;;;;;;;22.40;44.70;;;;;;5161410;27;20477;-44
2022/02/08 00:21:41;;;;;;;;;;;22.40;44.70;;;;;;5161386;27;20386;-44
2022/02/08 00:24:08;;;;;;;;;;;22.40;44.70;;;;;;5161584;27;19923;-49
2022/02/08 00:26:35;;;;;;;;;;;22.40;44.70;;;;;;5161881;27;20301;-50
2022/02/08 00:29:03;;;;;;;;;;;22.40;44.70;;;;;;5160521;27;20386;-49
2022/02/08 00:31:30;;;;;;;;;;;22.40;44.70;;;;;;5161548;27;19947;-51
2022/02/08 00:33:57;;;;;;;;;;;22.40;44.70;;;;;;5143129;27;20022;-48
2022/02/08 00:36:24;;;;;;;;;;;22.40;44.70;;;;;;5161390;27;19971;-50
2022/02/08 00:38:52;;;;;;;;;;;22.40;44.70;;;;;;5157807;27;19962;-48
2022/02/08 00:41:22;;;;;;;;;;;22.40;44.80;;;;;;5158438;27;20017;-49
2022/02/08 00:46:32;;;;;;;;;;;22.40;44.70;;;;;;5158126;27;20400;-46
2022/02/08 00:49:02;;;;;;;;;;;22.40;45.30;;;;;;5157987;27;19944;-47
2022/02/08 00:51:38;;;;;;;;;;;22.40;44.70;;;;;;5157825;27;20394;-47
2022/02/08 00:54:06;;;;;;;;;;;22.40;44.70;;;;;;5158868;27;19978;-46
2022/02/08 00:56:33;;;;;;;;;;;22.40;44.70;;;;;;5158146;27;19963;-49
2022/02/08 00:59:00;;;;;;;;;;;22.40;44.70;;;;;;5156878;27;19959;-49
2022/02/08 01:01:30;;;;;;;;;;;22.40;44.70;;;;;;5158118;27;20014;-48
2022/02/08 01:03:57;;;;;;;;;;;22.40;44.80;;;;;;5157724;27;20039;-49
2022/02/08 01:06:25;;;;;;;;;;;22.40;44.70;;;;;;5140421;27;20002;-46
2022/02/08 01:09:03;;;;;;;;;;;22.30;44.70;;;;;;5137231;27;20010;-43
2022/02/08 01:11:30;;;;;;;;;;;22.40;44.80;;;;;;5137736;27;19968;-46
2022/02/08 01:13:57;;;;;;;;;;;22.30;44.70;;;;;;5150283;27;19968;-47
2022/02/08 01:16:24;;;;;;;;;;;22.30;44.70;;;;;;5157729;27;19923;-44
2022/02/08 01:18:55;;;;;;;;;;;22.30;44.70;;;;;;5157140;27;19971;-48
2022/02/08 01:21:23;;;;;;;;;;;22.30;44.60;;;;;;5157552;27;19991;-45
2022/02/08 01:23:50;;;;;;;;;;;22.30;44.60;;;;;;5157629;27;19989;-50
2022/02/08 01:26:19;;;;;;;;;;;22.40;44.70;;;;;;5157269;27;19966;-51
2022/02/08 01:31:15;;;;;;;;;;;22.30;44.60;;;;;;5157203;27;20347;-48
2022/02/08 01:36:28;;;;;;;;;;;22.40;44.70;;;;;;5157037;27;19927;-47
2022/02/08 01:44:34;;;;;;;;;;;22.30;44.60;;;;;;5155968;27;19940;-46
2022/02/08 01:49:55;;;;;;;;;;;22.40;44.70;;;;;;5155642;27;19927;-45
2022/02/08 01:52:22;;;;;;;;;;;22.30;44.60;;;;;;5156572;27;19978;-49
2022/02/08 01:54:49;;;;;;;;;;;22.30;44.60;;;;;;5157018;27;19923;-44
2022/02/08 01:57:16;;;;;;;;;;;22.30;44.60;;;;;;5156937;27;20282;-44
2022/02/08 01:59:43;;;;;;;;;;;22.30;44.60;;;;;;5155595;27;20394;-44
2022/02/08 02:02:10;;;;;;;;;;;22.30;44.60;;;;;;5157141;27;20451;-45
2022/02/08 02:04:37;;;;;;;;;;;22.30;44.60;;;;;;5155089;27;19930;-46
2022/02/08 02:07:04;;;;;;;;;;;22.30;44.60;;;;;;5135731;27;20422;-44
2022/02/08 02:09:31;;;;;;;;;;;22.30;44.60;;;;;;5135720;27;19923;-44
2022/02/08 02:11:58;;;;;;;;;;;22.30;44.60;;;;;;5135951;27;19923;-44
2022/02/08 02:14:25;;;;;;;;;;;22.30;44.60;;;;;;5147242;27;19973;-48
2022/02/08 02:16:57;;;;;;;;;;;22.30;44.60;;;;;;5156081;27;19923;-44
2022/02/08 02:19:27;;;;;;;;;;;22.30;44.50;;;;;;5156076;27;19970;-45
2022/02/08 02:21:55;;;;;;;;;;;22.30;44.60;;;;;;5155994;27;20379;-44
2022/02/08 02:24:23;;;;;;;;;;;22.30;44.60;;;;;;5156429;27;19923;-45
2022/02/08 02:26:50;;;;;;;;;;;22.30;44.60;;;;;;5156374;27;20006;-45
2022/02/08 02:29:21;;;;;;;;;;;22.30;44.60;;;;;;5155318;27;19966;-45
2022/02/08 02:31:49;;;;;;;;;;;22.30;44.60;;;;;;5156328;27;19923;-45
2022/02/08 02:34:17;;;;;;;;;;;22.30;44.60;;;;;;5156252;27;19937;-44
2022/02/08 02:36:45;;;;;;;;;;;22.30;45.20;;;;;;5155837;27;19970;-45
2022/02/08 02:39:13;;;;;;;;;;;22.30;44.60;;;;;;5156206;27;20007;-47
2022/02/08 02:41:40;;;;;;;;;;;22.30;44.60;;;;;;5155827;27;19927;-46
2022/02/08 02:44:09;;;;;;;;;;;22.30;44.60;;;;;;5154771;27;19923;-44
2022/02/08 02:46:36;;;;;;;;;;;22.30;44.60;;;;;;5156005;27;19927;-46
2022/02/08 02:49:05;;;;;;;;;;;22.30;44.60;;;;;;5155746;27;19923;-46
2022/02/08 02:51:32;;;;;;;;;;;22.30;44.60;;;;;;5155507;27;19923;-47
2022/02/08 02:53:59;;;;;;;;;;;22.30;44.60;;;;;;5155641;27;19931;-45
2022/02/08 02:56:26;;;;;;;;;;;22.30;44.60;;;;;;5155849;27;19923;-45
2022/02/08 02:59:01;;;;;;;;;;;22.30;44.60;;;;;;5151581;27;19928;-47
2022/02/08 03:01:35;;;;;;;;;;;22.30;44.60;;;;;;5134768;27;19975;-48
2022/02/08 03:20:40;;;;;;;;;;;22.20;44.50;;;;;;5071417;28;19929;-48
2022/02/08 03:23:08;;;;;;;;;;;22.20;44.50;;;;;;5071189;28;19925;-47
2022/02/08 03:25:35;;;;;;;;;;;22.20;44.50;;;;;;5071628;28;20045;-45
2022/02/08 03:28:02;;;;;;;;;;;22.20;44.50;;;;;;5071344;28;19924;-48
2022/02/08 03:30:29;;;;;;;;;;;22.20;44.50;;;;;;5070614;28;20011;-46
2022/02/08 03:32:56;;;;;;;;;;;22.20;44.50;;;;;;5071301;28;19975;-47
2022/02/08 03:35:23;;;;;;;;;;;22.20;44.50;;;;;;5071325;28;20021;-50
2022/02/08 03:38:00;;;;;;;;;;;22.20;44.50;;;;;;5071159;28;20320;-50
2022/02/08 03:43:27;;;;;;;;;;;22.20;45.10;;;;;;5076909;28;19924;-50
2022/02/08 03:45:57;;;;;;;;;;;22.20;44.40;;;;;;5129514;28;19923;-53
2022/02/08 03:48:26;;;;;;;;;;;22.20;44.50;;;;;;5134553;27;19923;-46
2022/02/08 03:50:56;;;;;;;;;;;22.20;44.50;;;;;;5134618;27;19967;-47
2022/02/08 03:53:25;;;;;;;;;;;22.20;44.50;;;;;;5134095;27;19923;-49
2022/02/08 03:55:53;;;;;;;;;;;22.20;44.50;;;;;;5134228;27;19930;-45
2022/02/08 03:58:20;;;;;;;;;;;22.20;44.50;;;;;;5134485;27;20003;-49
2022/02/08 04:03:35;;;;;;;;;;;22.20;44.50;;;;;;5134482;28;19931;-49
2022/02/08 04:06:03;;;;;;;;;;;22.20;44.50;;;;;;5120346;27;20375;-48
2022/02/08 04:08:33;;;;;;;;;;;22.20;44.50;;;;;;5113909;28;19932;-48
2022/02/08 04:11:01;;;;;;;;;;;22.20;44.50;;;;;;5113884;28;19932;-45
2022/02/08 04:13:36;;;;;;;;;;;22.20;44.50;;;;;;5115752;28;19945;-49
2022/02/08 04:16:08;;;;;;;;;;;22.20;44.50;;;;;;5117368;28;19969;-47
2022/02/08 04:35:38;;;;;;;;;;;22.10;44.50;;;;;;5074393;28;19924;-44
2022/02/08 04:38:39;;;;;;;;;;;22.10;44.50;;;;;;5074334;28;20023;-50
2022/02/08 04:41:04;;;;;;;;;;;22.10;44.50;;;;;;5074966;28;20249;-47
2022/02/08 04:46:08;;;;;;;;;;;22.10;44.50;;;;;;5073363;28;19928;-43
2022/02/08 04:48:50;;;;;;;;;;;22.10;44.50;;;;;;5074088;28;19975;-47
2022/02/08 04:54:07;;;;;;;;;;;22.10;44.50;;;;;;5074063;28;19925;-46
2022/02/08 04:56:56;;;;;;;;;;;22.10;44.50;;;;;;5088693;27;19923;-48
2022/02/08 05:34:49;;;;;;;;;;;22.00;44.50;;;;;;5157542;27;20382;-45
2022/02/08 05:42:47;;;;;;;;;;;22.00;45.10;;;;;;5157309;27;19952;-45
2022/02/08 05:47:46;;;;;;;;;;;22.00;44.50;;;;;;5156999;27;19930;-46
2022/02/08 05:55:26;;;;;;;;;;;22.00;44.40;;;;;;5156765;27;19923;-47
2022/02/08 05:57:54;;;;;;;;;;;22.00;44.50;;;;;;5156900;27;19927;-49
2022/02/08 06:00:27;;;;;;;;;;;22.00;44.50;;;;;;5155958;27;19926;-46
2022/02/08 06:02:56;;;;;;;;;;;22.00;44.50;;;;;;5156921;27;20282;-46
2022/02/08 06:05:23;;;;;;;;;;;22.00;44.50;;;;;;5148298;27;19973;-51
2022/02/08 06:07:50;;;;;;;;;;;22.00;44.40;;;;;;5135687;27;19934;-46
2022/02/08 06:10:18;;;;;;;;;;;22.00;44.40;;;;;;5135704;27;20458;-45
2022/02/08 06:12:52;;;;;;;;;;;22.00;44.40;;;;;;5135948;27;20036;-50
2022/02/08 06:15:21;;;;;;;;;;;22.00;44.40;;;;;;5135635;27;19923;-44
2022/02/08 06:17:55;;;;;;;;;;;22.00;44.40;;;;;;5154230;27;20378;-46
2022/02/08 06:20:23;;;;;;;;;;;22.00;44.40;;;;;;5156563;27;19927;-49
2022/02/08 06:22:51;;;;;;;;;;;22.00;44.40;;;;;;5156331;27;19927;-48
2022/02/08 06:25:18;;;;;;;;;;;22.00;44.40;;;;;;5156452;27;19946;-51
2022/02/08 06:27:48;;;;;;;;;;;22.00;44.40;;;;;;5156409;27;19923;-49
2022/02/08 06:30:16;;;;;;;;;;;22.00;44.40;;;;;;5156352;27;19923;-49
2022/02/08 06:32:43;;;;;;;;;;;22.00;44.40;;;;;;5155293;27;19923;-53
2022/02/08 06:35:16;;;;;;;;;;;22.00;44.40;;;;;;5155312;27;20030;-48
2022/02/08 06:37:43;;;;;;;;;;;22.00;44.30;;;;;;5137894;27;19923;-48
2022/02/08 06:40:11;;;;;;;;;;;22.00;44.30;;;;;;5155883;27;19931;-44
2022/02/08 06:42:40;;;;;;;;;;;22.00;44.40;;;;;;5155787;27;19930;-44
2022/02/08 06:45:08;;;;;;;;;;;22.00;44.30;;;;;;5156370;27;19945;-49
2022/02/08 06:47:36;;;;;;;;;;;22.00;44.30;;;;;;5154569;27;20378;-49
2022/02/08 06:50:06;;;;;;;;;;;22.00;44.30;;;;;;5156048;27;20332;-52
2022/02/08 06:52:33;;;;;;;;;;;22.00;44.30;;;;;;5155473;27;19929;-50
2022/02/08 06:55:02;;;;;;;;;;;22.00;44.30;;;;;;5137614;27;19946;-48
2022/02/08 06:57:36;;;;;;;;;;;22.00;44.30;;;;;;5155508;27;19930;-50
2022/02/08 07:00:06;;;;;;;;;;;22.00;44.30;;;;;;5155563;27;19968;-46
2022/02/08 07:02:33;;;;;;;;;;;22.00;44.30;;;;;;5154810;27;20327;-51
2022/02/08 07:05:01;;;;;;;;;;;22.00;44.30;;;;;;5151696;27;20458;-53
2022/02/08 07:07:28;;;;;;;;;;;22.00;44.90;;;;;;5135028;27;20006;-50
2022/02/08 07:09:55;;;;;;;;;;;22.00;44.30;;;;;;5134691;27;19924;-53
2022/02/08 07:12:22;;;;;;;;;;;22.00;44.30;;;;;;5134992;27;20295;-53
2022/02/08 07:14:49;;;;;;;;;;;22.00;44.30;;;;;;5134684;27;19966;-47
2022/02/08 07:17:16;;;;;;;;;;;22.00;44.30;;;;;;5143283;27;19945;-52
2022/02/08 07:19:44;;;;;;;;;;;22.00;44.20;;;;;;5155061;27;19923;-52
2022/02/08 07:22:11;;;;;;;;;;;22.00;44.20;;;;;;5155077;27;19927;-54
2022/02/08 07:24:38;;;;;;;;;;;22.00;44.20;;;;;;5155594;27;20439;-52
2022/02/08 07:27:05;;;;;;;;;;;22.00;44.20;;;;;;5155266;27;19927;-51
2022/02/08 07:29:37;;;;;;;;;;;22.00;44.20;;;;;;5155571;27;19923;-53
2022/02/08 07:32:05;;;;;;;;;;;22.00;44.20;;;;;;5147909;27;19938;-52
2022/02/08 07:34:44;;;;;;;;;;;22.10;44.20;;;;;;5134471;28;19923;-52
2022/02/08 07:37:21;;;;;;;;;;;22.00;44.10;;;;;;5134484;28;19934;-51
2022/02/08 07:39:53;;;;;;;;;;;22.10;44.20;;;;;;5134635;28;19923;-52
2022/02/08 07:42:20;;;;;;;;;;;22.10;44.20;;;;;;5134378;28;19974;-47
2022/02/08 07:44:47;;;;;;;;;;;22.10;44.20;;;;;;5134609;28;20298;-45
2022/02/08 07:47:14;;;;;;;;;;;22.10;44.20;;;;;;5142216;27;20339;-46
2022/02/08 07:49:42;;;;;;;;;;;22.10;44.10;;;;;;5159142;27;19930;-45
2022/02/08 07:52:09;;;;;;;;;;;22.10;44.10;;;;;;5159186;27;19967;-48
2022/02/08 07:54:36;;;;;;;;;;;22.10;44.10;;;;;;5159933;27;19931;-48
2022/02/08 07:57:03;;;;;;;;;;;22.10;44.10;;;;;;5159383;27;20336;-52
2022/02/08 07:59:30;;;;;;;;;;;22.10;44.10;;;;;;5158950;27;19923;-46
2022/02/08 08:01:58;;;;;;;;;;;22.10;44.10;;;;;;5157895;27;19931;-48
2022/02/08 08:04:25;;;;;;;;;;;22.10;44.10;;;;;;5158906;27;19930;-48
2022/02/08 08:06:54;;;;;;;;;;;22.10;44.10;;;;;;5141151;27;20316;-47
2022/02/08 08:09:21;;;;;;;;;;;22.10;44.00;;;;;;5158841;27;19927;-47
2022/02/08 08:11:51;;;;;;;;;;;22.10;44.00;;;;;;5159152;27;20006;-46
2022/02/08 08:14:21;;;;;;;;;;;22.10;44.00;;;;;;5140703;27;19923;-49
2022/02/08 08:17:01;;;;;;;;;;;22.10;44.00;;;;;;5157872;27;19923;-50
2022/02/08 08:19:37;;;;;;;;;;;22.10;43.90;;;;;;5158439;27;19923;-48
2022/02/08 08:22:08;;;;;;;;;;;22.10;43.90;;;;;;5158441;27;20441;-46
2022/02/08 08:24:35;;;;;;;;;;;22.10;43.90;;;;;;5158593;27;19923;-47
2022/02/08 08:27:03;;;;;;;;;;;22.10;43.90;;;;;;5158860;27;19923;-50
2022/02/08 08:29:30;;;;;;;;;;;22.10;43.90;;;;;;5140417;27;20271;-47
2022/02/08 08:31:57;;;;;;;;;;;22.10;43.90;;;;;;5139425;27;19923;-49
2022/02/08 08:34:24;;;;;;;;;;;22.10;43.90;;;;;;5157973;27;19923;-47
2022/02/08 08:36:52;;;;;;;;;;;22.10;43.90;;;;;;5158640;27;19927;-50
2022/02/08 08:39:24;;;;;;;;;;;22.10;43.90;;;;;;5158161;27;19923;-45
2022/02/08 08:52:12;;;;;;;;;;;22.20;43.80;;;;;;5158145;27;19973;-48
2022/02/08 08:54:40;;;;;;;;;;;22.20;43.80;;;;;;5157952;27;19923;-47
2022/02/08 08:57:07;;;;;;;;;;;22.20;43.80;;;;;;5157898;27;19923;-46
2022/02/08 08:59:34;;;;;;;;;;;22.20;43.80;;;;;;5157351;27;19923;-51
2022/02/08 09:02:01;;;;;;;;;;;22.20;43.80;;;;;;5157669;27;19974;-48
2022/02/08 09:04:33;;;;;;;;;;;22.20;43.70;;;;;;5156322;27;19923;-49
2022/02/08 09:07:00;;;;;;;;;;;22.20;43.70;;;;;;5136979;27;19975;-50
2022/02/08 09:09:30;;;;;;;;;;;22.20;43.70;;;;;;5118966;27;20423;-53
2022/02/08 09:28:39;;;;;;;;;;;22.30;43.60;;;;;;5073076;28;19924;-46
2022/02/08 09:31:09;;;;;;;;;;;22.30;43.60;;;;;;5073483;28;19925;-43
2022/02/08 09:33:37;;;;;;;;;;;22.30;43.60;;;;;;5072421;28;19924;-44
2022/02/08 09:36:04;;;;;;;;;;;22.30;43.50;;;;;;5073301;28;19924;-46
2022/02/08 09:38:34;;;;;;;;;;;22.40;43.60;;;;;;5072989;28;19950;-46
2022/02/08 09:41:02;;;;;;;;;;;22.40;43.50;;;;;;5073099;28;19935;-45
2022/02/08 09:43:30;;;;;;;;;;;22.40;43.50;;;;;;5073113;28;19925;-48
2022/02/08 09:45:59;;;;;;;;;;;22.40;43.50;;;;;;5072956;28;19924;-50
2022/02/08 09:48:36;;;;;;;;;;;22.40;43.40;;;;;;5071974;28;19963;-50
2022/02/08 09:51:03;;;;;;;;;;;22.40;43.40;;;;;;5072827;28;19970;-49
2022/02/08 09:53:32;;;;;;;;;;;22.40;43.40;;;;;;5073965;28;19924;-44
2022/02/08 09:55:59;;;;;;;;;;;22.40;43.40;;;;;;5093132;28;19924;-46
2022/02/08 09:58:27;;;;;;;;;;;22.40;43.40;;;;;;5092919;28;19928;-46
2022/02/08 10:01:06;;;;;;;;;;;22.40;43.30;;;;;;5092950;28;19924;-44
2022/02/08 10:03:33;;;;;;;;;;;22.40;43.30;;;;;;5139266;27;19923;-50
2022/02/08 10:06:00;;;;;;;;;;;22.50;43.30;;;;;;5142996;27;20389;-47
2022/02/08 10:08:28;;;;;;;;;;;22.40;43.20;;;;;;5117853;27;19972;-45
2022/02/08 10:10:56;;;;;;;;;;;22.50;43.90;;;;;;5135022;27;20290;-43
2022/02/08 10:21:48;;;;;;;;;;;22.50;43.20;;;;;;5156149;27;19957;-45
2022/02/08 10:24:17;;;;;;;;;;;22.50;43.20;;;;;;5156110;27;19923;-44
2022/02/08 10:29:19;;;;;;;;;;;22.50;43.10;;;;;;5157240;27;19958;-50
2022/02/08 10:40:10;;;;;;;;;;;22.60;43.10;;;;;;5156230;27;19922;-47
2022/02/08 10:42:38;;;;;;;;;;;22.60;43.00;;;;;;5155827;27;19923;-46
2022/02/08 10:45:19;;;;;;;;;;;22.70;43.00;;;;;;5156067;27;19970;-49
2022/02/08 10:47:52;;;;;;;;;;;22.70;43.00;;;;;;5156011;27;20019;-50
2022/02/08 10:50:19;;;;;;;;;;;22.70;43.00;;;;;;5155061;27;19923;-45
2022/02/08 10:52:47;;;;;;;;;;;22.70;42.90;;;;;;5155836;27;19923;-44
2022/02/08 11:00:55;;;;;;;;;;;22.80;42.80;;;;;;5091893;28;19925;-45
2022/02/08 11:03:44;;;;;;;;;;;22.80;42.80;;;;;;5091930;28;19953;-47
2022/02/08 11:06:37;;;;;;;;;;;22.80;42.70;;;;;;5086199;28;19990;-43
2022/02/08 11:12:14;;;;;;;;;;;22.80;42.70;;;;;;5091726;28;19959;-45
2022/02/08 11:14:59;;;;;;;;;;;22.80;42.60;;;;;;5091891;28;20464;-44
2022/02/08 11:18:03;;;;;;;;;;;22.90;42.60;;;;;;5091618;28;20479;-44
2022/02/08 11:23:25;;;;;;;;;;;22.90;42.50;;;;;;5091133;28;19928;-44
2022/02/08 11:25:54;;;;;;;;;;;22.90;42.50;;;;;;5091621;28;20384;-46
2022/02/08 11:31:05;;;;;;;;;;;23.00;42.50;;;;;;5091855;28;19928;-44
2022/02/08 11:39:27;;;;;;;;;;;23.00;42.40;;;;;;5155328;27;19923;-45
2022/02/08 11:45:05;;;;;;;;;;;23.00;42.40;;;;;;5155379;27;19930;-44
2022/02/08 11:58:56;;;;;;;;;;;23.00;42.20;;;;;;5155280;27;19923;-45
2022/02/08 12:01:44;;;;;;;;;;;23.10;42.30;;;;;;5155299;27;19923;-45
2022/02/08 12:32:36;;;;;;;;;;;23.20;42.10;;;;;;5154872;27;20356;-45
2022/02/08 12:34:48;;;;;;;;;;;23.20;42.10;;;;;;5142582;27;20338;-46
2022/02/08 12:56:58;;;;;;;;;;;23.30;42.10;;;;;;5137614;27;20338;-47
2022/02/08 14:01:57;;;;;;;;;;;23.30;42.20;;;;;;5115775;28;19976;-44
2022/02/08 14:07:34;;;;;;;;;;;23.30;42.20;;;;;;5108654;28;19931;-45
2022/02/08 14:18:47;;;;;;;;;;;23.20;42.80;;;;;;5057898;28;19928;-49
2022/02/08 14:23:56;;;;;;;;;;;23.20;42.30;;;;;;5072404;28;19928;-47
2022/02/08 15:09:36;;;;;;;;;;;23.20;42.60;;;;;;5135145;27;20287;-45
2022/02/08 15:12:16;;;;;;;;;;;23.20;42.60;;;;;;5134780;27;19927;-47
2022/02/08 15:17:13;;;;;;;;;;;23.20;42.60;;;;;;5134580;27;19974;-45
2022/02/08 15:19:43;;;;;;;;;;;23.20;42.70;;;;;;5133240;27;19924;-43
2022/02/08 15:22:10;;;;;;;;;;;23.20;42.60;;;;;;5133688;27;20356;-44
2022/02/08 15:24:39;;;;;;;;;;;23.20;42.70;;;;;;5133690;28;19992;-46
2022/02/08 15:27:08;;;;;;;;;;;23.20;42.70;;;;;;5133323;27;19927;-48
2022/02/08 15:29:36;;;;;;;;;;;23.20;42.70;;;;;;5134515;27;19969;-45
2022/02/08 15:32:05;;;;;;;;;;;23.20;42.70;;;;;;5135326;27;19980;-45
2022/02/08 15:34:32;;;;;;;;;;;23.10;42.70;;;;;;5134501;27;19924;-47
2022/02/08 15:37:00;;;;;;;;;;;23.10;42.70;;;;;;5133336;27;19923;-44
2022/02/08 15:39:28;;;;;;;;;;;23.10;42.70;;;;;;5134751;27;19923;-44
2022/02/08 15:41:55;;;;;;;;;;;23.10;42.70;;;;;;5134663;27;19972;-44
2022/02/08 15:44:24;;;;;;;;;;;23.10;42.80;;;;;;5134732;27;20297;-45
2022/02/08 15:46:53;;;;;;;;;;;23.10;42.80;;;;;;5134516;27;19928;-45
2022/02/08 15:49:21;;;;;;;;;;;23.10;42.80;;;;;;5134312;27;19962;-44
2022/02/08 15:51:56;;;;;;;;;;;23.10;42.80;;;;;;5133066;27;19956;-45
2022/02/08 16:08:33;;;;;;;;;;;23.10;42.90;;;;;;5113375;27;19967;-48
2022/02/08 16:11:20;;;;;;;;;;;23.10;43.00;;;;;;5111299;27;20052;-51
2022/02/08 16:14:06;;;;;;;;;;;23.10;43.00;;;;;;5115225;27;20445;-47
2022/02/08 16:19:52;;;;;;;;;;;23.10;43.20;;;;;;5042206;28;20339;-48
2022/02/08 16:27:41;;;;;;;;;;;23.10;43.50;;;;;;5042148;28;19935;-48
2022/02/08 16:57:06;;;;;;;;;;;23.00;44.50;;;;;;5053186;28;20297;-48
2022/02/08 16:59:36;;;;;;;;;;;23.00;44.60;;;;;;5059643;28;19932;-44
2022/02/08 17:02:05;;;;;;;;;;;23.00;44.60;;;;;;5059936;28;19975;-43
2022/02/08 17:04:32;;;;;;;;;;;23.00;44.70;;;;;;5057008;28;19933;-45
2022/02/08 17:06:59;;;;;;;;;;;23.00;44.80;;;;;;5055759;28;21664;-45
2022/02/08 17:12:12;;;;;;;;;;;23.00;45.00;;;;;;5072174;27;19976;-47
2022/02/08 17:17:44;;;;;;;;;;;23.00;45.00;;;;;;5115272;27;19923;-43
2022/02/08 17:47:59;;;;;;;;;;;23.00;45.80;;;;;;5077530;28;19924;-47
2022/02/08 17:50:26;;;;;;;;;;;23.00;45.80;;;;;;5074705;28;19928;-47
2022/02/08 17:52:55;;;;;;;;;;;23.00;45.90;;;;;;5072756;28;19931;-44
2022/02/08 17:55:23;;;;;;;;;;;23.00;45.90;;;;;;5076132;28;19931;-48
2022/02/08 17:57:52;;;;;;;;;;;23.00;45.90;;;;;;5080335;28;20372;-48
2022/02/08 18:00:19;;;;;;;;;;;23.00;45.90;;;;;;5078298;28;20555;-47
2022/02/08 18:02:47;;;;;;;;;;;23.00;45.90;;;;;;5077839;28;20027;-47
2022/02/08 18:05:15;;;;;;;;;;;22.90;45.90;;;;;;5075696;28;20009;-46
2022/02/08 18:07:43;;;;;;;;;;;23.00;46.00;;;;;;5076315;28;19924;-46
2022/02/08 18:10:12;;;;;;;;;;;22.90;45.90;;;;;;5082016;27;19942;-44
2022/02/08 18:12:44;;;;;;;;;;;23.00;46.10;;;;;;5115570;27;20686;-43
2022/02/08 18:15:13;;;;;;;;;;;22.90;46.10;;;;;;5118372;27;20262;-44
2022/02/08 18:20:57;;;;;;;;;;;23.00;46.30;;;;;;5090594;28;20414;-44
2022/02/08 18:24:00;;;;;;;;;;;22.90;46.20;;;;;;5085047;28;19935;-45
2022/02/08 18:27:19;;;;;;;;;;;22.90;46.20;;;;;;5090328;28;19928;-44
2022/02/08 18:57:03;;;;;;;;;;;22.90;47.00;;;;;;5092327;28;20034;-50
2022/02/08 19:07:33;;;;;;;;;;;22.90;47.30;;;;;;5091888;28;19924;-44
2022/02/08 19:12:54;;;;;;;;;;;22.90;47.40;;;;;;5094940;28;19924;-47
2022/02/08 19:20:55;;;;;;;;;;;22.90;47.50;;;;;;5129623;27;19976;-49
2022/02/08 19:23:22;;;;;;;;;;;22.90;47.60;;;;;;5131518;27;19968;-46
2022/02/08 19:25:49;;;;;;;;;;;22.90;47.60;;;;;;5129576;27;20297;-44
2022/02/08 19:28:16;;;;;;;;;;;22.90;47.60;;;;;;5131617;27;19932;-47
2022/02/08 19:30:43;;;;;;;;;;;22.90;47.60;;;;;;5132140;27;19927;-50
2022/02/08 19:33:11;;;;;;;;;;;22.90;47.80;;;;;;5134037;27;19928;-49
2022/02/08 19:35:38;;;;;;;;;;;22.90;47.80;;;;;;5133254;27;20410;-46
2022/02/08 19:38:06;;;;;;;;;;;22.90;47.80;;;;;;5130636;27;19968;-44
2022/02/08 19:40:33;;;;;;;;;;;22.90;47.80;;;;;;5130430;27;20374;-49
2022/02/08 19:43:00;;;;;;;;;;;22.90;47.90;;;;;;5133123;27;19939;-47
2022/02/08 19:45:27;;;;;;;;;;;22.90;47.80;;;;;;5133739;27;19931;-45
2022/02/08 19:47:55;;;;;;;;;;;22.90;47.90;;;;;;5135337;27;19931;-47
2022/02/08 19:50:22;;;;;;;;;;;22.90;47.90;;;;;;5118921;27;19935;-44
2022/02/08 19:52:50;;;;;;;;;;;22.90;47.90;;;;;;5135970;27;19924;-48
2022/02/08 19:55:38;;;;;;;;;;;22.80;47.80;;;;;;5138880;27;19930;-50
2022/02/08 19:58:18;;;;;;;;;;;22.80;48.00;;;;;;5141732;27;20286;-46
2022/02/08 20:00:56;;;;;;;;;;;22.80;48.00;;;;;;5141407;27;19968;-48
2022/02/08 20:03:30;;;;;;;;;;;22.80;48.60;;;;;;5133841;27;19961;-47
2022/02/08 20:05:57;;;;;;;;;;;22.80;48.00;;;;;;5133054;27;19923;-47
2022/02/08 20:08:26;;;;;;;;;;;22.80;48.00;;;;;;5141643;27;19979;-48
2022/02/08 20:10:54;;;;;;;;;;;22.80;48.00;;;;;;5136023;27;19950;-45
2022/02/08 20:13:25;;;;;;;;;;;22.80;48.10;;;;;;5135093;27;19970;-44
2022/02/08 20:15:53;;;;;;;;;;;22.80;48.00;;;;;;5137080;27;19931;-46
2022/02/08 20:18:20;;;;;;;;;;;22.80;48.00;;;;;;5133836;27;19932;-44
2022/02/08 20:20:49;;;;;;;;;;;22.80;48.10;;;;;;5136203;27;19976;-46
2022/02/08 20:23:17;;;;;;;;;;;22.80;48.00;;;;;;5135030;27;19935;-46
2022/02/08 20:25:48;;;;;;;;;;;22.80;48.10;;;;;;5133985;27;20441;-45
2022/02/08 20:28:24;;;;;;;;;;;22.80;48.10;;;;;;5131929;27;19930;-47
2022/02/08 20:30:52;;;;;;;;;;;22.80;48.10;;;;;;5135155;27;19923;-45
2022/02/08 20:33:19;;;;;;;;;;;22.80;48.20;;;;;;5145333;27;19962;-45
2022/02/08 20:35:46;;;;;;;;;;;22.80;48.20;;;;;;5158033;27;20339;-46
2022/02/08 20:38:16;;;;;;;;;;;22.80;48.10;;;;;;5158317;27;19927;-45
2022/02/08 20:40:43;;;;;;;;;;;22.80;48.20;;;;;;5157235;27;19927;-46
2022/02/08 20:43:12;;;;;;;;;;;22.80;48.10;;;;;;5158157;27;19923;-44
2022/02/08 20:45:42;;;;;;;;;;;22.80;48.20;;;;;;5138995;27;19923;-44
2022/02/08 20:48:10;;;;;;;;;;;22.80;48.20;;;;;;5158486;27;19923;-47
2022/02/08 20:50:39;;;;;;;;;;;22.80;48.30;;;;;;5158456;27;19923;-47
2022/02/08 20:53:22;;;;;;;;;;;22.70;48.20;;;;;;5158214;27;19968;-43
2022/02/08 20:55:59;;;;;;;;;;;22.80;48.20;;;;;;5156002;27;20405;-46
2022/02/08 20:58:48;;;;;;;;;;;22.70;48.10;;;;;;5158319;27;20010;-45
2022/02/08 21:01:13;;;;;;;;;;;22.70;48.00;;;;;;5157610;27;20301;-45
2022/02/08 21:03:52;;;;;;;;;;;22.70;48.00;;;;;;5157868;27;20290;-45
2022/02/08 21:06:22;;;;;;;;;;;22.70;48.00;;;;;;5141573;27;20017;-44
2022/02/08 21:08:49;;;;;;;;;;;22.70;47.90;;;;;;5137068;27;20010;-44
2022/02/08 21:11:18;;;;;;;;;;;22.70;47.90;;;;;;5147112;27;19931;-45
2022/02/08 21:14:03;;;;;;;;;;;22.70;47.80;;;;;;5157669;27;19923;-44
2022/02/08 21:16:31;;;;;;;;;;;22.70;47.80;;;;;;5137171;27;20279;-44
2022/02/08 21:19:00;;;;;;;;;;;22.70;47.70;;;;;;5136833;27;19996;-46
2022/02/08 21:21:28;;;;;;;;;;;22.70;47.70;;;;;;5118439;27;19977;-44
2022/02/08 21:23:56;;;;;;;;;;;22.70;47.60;;;;;;5137129;27;19995;-46
2022/02/08 21:26:28;;;;;;;;;;;22.70;47.60;;;;;;5146820;27;19973;-43
2022/02/08 21:31:43;;;;;;;;;;;22.70;47.50;;;;;;5156621;27;20428;-45
2022/02/08 21:47:49;;;;;;;;;;;22.70;47.30;;;;;;5156913;27;19923;-45
2022/02/08 21:52:59;;;;;;;;;;;22.70;47.20;;;;;;5157144;27;19924;-43
2022/02/08 21:55:26;;;;;;;;;;;22.70;47.20;;;;;;5156613;27;19923;-43
2022/02/08 21:57:54;;;;;;;;;;;22.60;47.10;;;;;;5135837;27;19923;-44
2022/02/08 22:00:22;;;;;;;;;;;22.60;47.00;;;;;;5135757;27;19924;-48
2022/02/08 22:02:53;;;;;;;;;;;22.60;47.00;;;;;;5136246;27;20026;-46
2022/02/08 22:05:20;;;;;;;;;;;22.60;47.00;;;;;;5143677;27;19992;-46
2022/02/08 22:08:36;;;;;;;;;;;22.60;46.90;;;;;;5156638;27;19968;-43
2022/02/08 22:21:11;;;;;;;;;;;22.60;46.80;;;;;;5156362;27;20382;-48
2022/02/08 22:31:47;;;;;;;;;;;22.60;46.70;;;;;;5142748;27;19931;-47
2022/02/08 22:34:35;;;;;;;;;;;22.60;46.70;;;;;;5135310;27;20014;-46
2022/02/08 22:37:13;;;;;;;;;;;22.60;46.60;;;;;;5134679;27;19980;-46
2022/02/08 22:42:15;;;;;;;;;;;22.60;46.60;;;;;;5145208;27;20331;-45
2022/02/08 22:47:09;;;;;;;;;;;22.60;46.50;;;;;;5154954;27;20442;-49
2022/02/08 22:49:36;;;;;;;;;;;22.50;46.50;;;;;;5155811;27;19930;-50
2022/02/08 22:52:07;;;;;;;;;;;22.50;46.50;;;;;;5155608;27;19924;-48
2022/02/08 22:54:35;;;;;;;;;;;22.50;46.50;;;;;;5155805;27;19923;-44
2022/02/08 22:57:05;;;;;;;;;;;22.50;46.50;;;;;;5154660;27;20446;-46
2022/02/08 22:59:35;;;;;;;;;;;22.50;46.40;;;;;;5156519;27;19923;-46
2022/02/08 23:02:03;;;;;;;;;;;22.50;46.40;;;;;;5154693;27;19968;-45
2022/02/08 23:04:32;;;;;;;;;;;22.50;46.40;;;;;;5155264;27;19930;-49
2022/02/08 23:07:00;;;;;;;;;;;22.50;46.40;;;;;;5135143;27;19924;-49
2022/02/08 23:14:24;;;;;;;;;;;22.50;46.30;;;;;;5155789;27;19923;-44
2022/02/08 23:38:45;;;;;;;;;;;22.50;46.20;;;;;;5155180;27;19948;-47
2022/02/08 23:41:13;;;;;;;;;;;22.50;46.20;;;;;;5155058;27;19979;-47
2022/02/08 23:43:42;;;;;;;;;;;22.50;46.20;;;;;;5153980;27;20034;-44
2022/02/08 23:46:10;;;;;;;;;;;22.50;46.20;;;;;;5154040;27;20456;-45
2022/02/08 23:48:45;;;;;;;;;;;22.50;46.20;;;;;;5155016;27;19923;-46
2022/02/08 23:51:20;;;;;;;;;;;22.50;46.20;;;;;;5155286;27;19955;-46
2022/02/08 23:54:00;;;;;;;;;;;22.40;46.10;;;;;;5155070;27;20026;-44